createdAt,value
2023-05-28T00:01:04.427Z,13.70
2023-05-28T00:11:08.316Z,13.60
2023-05-28T00:21:13.529Z,13.60
2023-05-28T00:31:17.383Z,13.50
2023-05-28T00:41:23.872Z,13.50
2023-05-28T00:51:28.120Z,13.60
2023-05-28T01:01:34.609Z,13.50
2023-05-28T01:11:42.089Z,13.30
2023-05-28T01:21:49.472Z,13.30
2023-05-28T01:31:54.594Z,13.20
2023-05-28T01:41:59.157Z,13.20
2023-05-28T01:52:09.320Z,13.00
2023-05-28T02:02:13.036Z,12.80
2023-05-28T02:12:18.362Z,12.70
2023-05-28T02:22:22.051Z,12.40
2023-05-28T02:32:27.188Z,12.40
2023-05-28T02:42:30.973Z,12.30
2023-05-28T02:52:36.162Z,12.20
2023-05-28T03:02:40.105Z,12.10
2023-05-28T03:12:45.152Z,11.90
2023-05-28T03:22:51.073Z,11.90
2023-05-28T03:32:56.447Z,11.80
2023-05-28T03:43:00.289Z,11.70
2023-05-28T03:53:05.625Z,11.70
2023-05-28T04:03:09.512Z,11.80
2023-05-28T04:13:14.657Z,11.80
2023-05-28T04:23:18.509Z,11.80
2023-05-28T04:33:23.683Z,11.70
2023-05-28T04:43:27.338Z,11.70
2023-05-28T04:53:35.707Z,11.60
2023-05-28T05:03:39.718Z,11.60
2023-05-28T05:13:44.871Z,11.60
2023-05-28T05:23:50.144Z,11.70
2023-05-28T05:33:55.175Z,12.00
2023-05-28T05:43:58.821Z,12.40
2023-05-28T05:54:03.964Z,12.60
2023-05-28T06:04:07.774Z,13.00
2023-05-28T06:14:12.967Z,13.20
2023-05-28T06:24:16.676Z,13.40
2023-05-28T06:34:21.820Z,13.80
2023-05-28T06:44:25.830Z,14.30
2023-05-28T06:54:30.852Z,14.60
2023-05-28T07:04:34.708Z,15.00
2023-05-28T07:14:39.963Z,15.40
2023-05-28T07:24:43.714Z,15.70
2023-05-28T07:34:48.806Z,16.10
2023-05-28T07:44:52.485Z,16.20
2023-05-28T07:54:59.374Z,16.70
2023-05-28T08:05:03.402Z,17.20
2023-05-28T08:15:11.015Z,17.30
2023-05-28T08:25:15.145Z,17.90
2023-05-28T08:35:20.392Z,18.30
2023-05-28T08:45:24.133Z,18.40
2023-05-28T08:55:29.350Z,19.10
2023-05-28T09:05:33.416Z,19.00
2023-05-28T09:15:39.085Z,19.20
2023-05-28T09:25:45.209Z,19.60
2023-05-28T09:36:01.320Z,19.70
2023-05-28T09:46:11.709Z,19.80
2023-05-28T09:56:19.214Z,20.20
2023-05-28T10:06:25.729Z,20.50
2023-05-28T10:16:31.829Z,20.80
2023-05-28T10:26:38.111Z,21.00
2023-05-28T10:36:52.585Z,21.10
2023-05-28T10:47:07.614Z,21.20
2023-05-28T10:57:17.568Z,21.70
2023-05-28T11:07:24.136Z,21.70
2023-05-28T11:17:30.448Z,21.90
2023-05-28T11:27:36.387Z,22.10
2023-05-28T11:37:42.972Z,22.20
2023-05-28T11:47:47.742Z,22.30
2023-05-28T11:57:57.070Z,22.40
2023-05-28T12:08:01.282Z,22.90
2023-05-28T12:18:08.055Z,22.80
2023-05-28T12:28:12.318Z,22.90
2023-05-28T12:38:17.710Z,23.00
2023-05-28T12:48:21.639Z,23.30
2023-05-28T12:58:28.350Z,23.20
2023-05-28T13:08:32.546Z,23.30
2023-05-28T13:18:37.792Z,23.40
2023-05-28T13:28:41.680Z,23.50
2023-05-28T13:38:48.494Z,23.50
2023-05-28T13:48:52.999Z,23.90
2023-05-28T13:58:58.896Z,24.00
2023-05-28T14:09:02.572Z,24.40
2023-05-28T14:19:07.737Z,24.00
2023-05-28T14:29:11.446Z,24.00
2023-05-28T14:39:16.484Z,24.20
2023-05-28T14:49:20.430Z,24.30
2023-05-28T14:59:25.513Z,24.50
2023-05-28T15:09:29.167Z,24.40
2023-05-28T15:19:36.029Z,24.50
2023-05-28T15:29:44.305Z,24.80
2023-05-28T15:39:51.209Z,25.00
2023-05-28T15:49:55.155Z,25.20
2023-05-28T16:00:00.959Z,26.30
2023-05-28T16:10:05.543Z,25.80
2023-05-28T16:20:12.466Z,26.10
2023-05-28T16:30:17.412Z,26.10
2023-05-28T16:40:23.140Z,26.70
2023-05-28T16:50:27.127Z,26.90
2023-05-28T17:00:32.186Z,27.40
2023-05-28T17:10:35.998Z,28.20
2023-05-28T17:20:41.106Z,29.50
2023-05-28T17:30:44.873Z,29.70
2023-05-28T17:40:51.005Z,31.00
2023-05-28T17:50:54.848Z,28.40
2023-05-28T18:01:00.007Z,27.90
2023-05-28T18:11:04.037Z,27.30
2023-05-28T18:21:09.294Z,25.60
2023-05-28T18:31:16.023Z,24.10
2023-05-28T18:41:22.224Z,23.30
2023-05-28T18:51:25.983Z,22.70
2023-05-28T19:01:32.902Z,22.30
2023-05-28T19:11:36.833Z,22.00
2023-05-28T19:21:41.944Z,21.60
2023-05-28T19:31:45.979Z,21.30
2023-05-28T19:41:51.213Z,21.10
2023-05-28T19:51:54.999Z,20.80
2023-05-28T20:02:00.586Z,20.50
2023-05-28T20:12:04.508Z,20.30
2023-05-28T20:22:09.808Z,20.00
2023-05-28T20:32:13.789Z,19.50
2023-05-28T20:42:20.069Z,19.10
2023-05-28T20:52:24.152Z,18.70
2023-05-28T21:02:29.392Z,18.40
2023-05-28T21:12:33.263Z,18.20
2023-05-28T21:22:38.608Z,17.90
2023-05-28T21:32:44.021Z,17.80
2023-05-28T21:42:49.602Z,17.60
2023-05-28T21:52:53.653Z,17.50
2023-05-28T22:02:58.932Z,17.30
2023-05-28T22:13:02.902Z,17.20
2023-05-28T22:23:08.256Z,16.90
2023-05-28T22:33:13.937Z,16.70
2023-05-28T22:43:20.433Z,16.50
2023-05-28T22:53:24.200Z,16.40
2023-05-28T23:03:29.464Z,16.30
2023-05-28T23:13:34.140Z,16.20
2023-05-28T23:23:39.918Z,16.00
2023-05-28T23:33:43.829Z,15.80
2023-05-28T23:43:48.980Z,15.70
2023-05-28T23:53:52.913Z,15.50
